Time;durP1;ratioP1;P1;durP2;ratioP2;P2;SDS_P1;SDS_P2;PMS_P1;PMS_P2;Temp;Humidity;BMP_temperature;BMP_pressure;BME280_temperature;BME280_humidity;BME280_pressure;Samples;Min_cycle;Max_cycle;Signal;HPM_P1;HPM_P2
2022/01/30 00:01:50;;;;;;;6.27;3.13;;;-7.50;99.90;;;;;;2211513;64;20700;-43
2022/01/30 00:04:16;;;;;;;27.60;9.77;;;-7.50;99.90;;;;;;2208487;64;20163;-47
2022/01/30 00:06:42;;;;;;;28.30;11.47;;;-7.50;99.90;;;;;;2211545;64;20496;-43
2022/01/30 00:09:15;;;;;;;33.57;11.27;;;-7.50;99.90;;;;;;2212983;64;20113;-43
2022/01/30 00:11:45;;;;;;;31.67;11.37;;;-7.40;99.90;;;;;;2215439;64;20170;-43
2022/01/30 00:14:14;;;;;;;30.80;10.53;;;-7.40;99.90;;;;;;2215218;64;20132;-43
2022/01/30 00:16:41;;;;;;;9.33;2.93;;;-7.40;99.90;;;;;;2215266;64;20081;-43
2022/01/30 00:21:39;;;;;;;33.60;12.50;;;-7.40;99.90;;;;;;2215267;64;20751;-43
2022/01/30 00:24:14;;;;;;;19.63;6.37;;;-7.40;99.90;;;;;;2215591;64;20096;-42
2022/01/30 00:26:41;;;;;;;;;;;-7.40;99.90;;;;;;2214489;64;20080;-43
2022/01/30 00:29:08;;;;;;;20.00;5.63;;;-7.40;99.90;;;;;;2220925;64;20047;-43
2022/01/30 00:31:36;;;;;;;20.07;6.50;;;-7.30;99.90;;;;;;2220450;64;20084;-42
2022/01/30 00:34:03;;;;;;;17.80;6.97;;;-7.30;99.90;;;;;;2220815;64;20107;-42
2022/01/30 00:36:32;;;;;;;19.87;7.10;;;-7.30;99.90;;;;;;2220839;64;20085;-43
2022/01/30 00:38:59;;;;;;;25.03;7.70;;;-7.30;99.90;;;;;;2220884;64;20077;-43
2022/01/30 00:41:26;;;;;;;25.17;7.07;;;-7.30;99.90;;;;;;2221007;64;20130;-42
2022/01/30 00:43:53;;;;;;;26.43;8.33;;;-7.30;99.90;;;;;;2220709;64;20115;-43
2022/01/30 00:46:19;;;;;;;22.63;8.53;;;-7.30;99.90;;;;;;2221043;64;20085;-43
2022/01/30 00:48:45;;;;;;;26.63;8.97;;;-7.30;99.90;;;;;;2220142;64;20176;-44
2022/01/30 00:51:12;;;;;;;22.77;7.63;;;-7.30;99.90;;;;;;2220982;64;20161;-44
2022/01/30 00:53:38;;;;;;;27.73;8.43;;;-7.30;99.90;;;;;;2220097;64;20156;-42
2022/01/30 00:56:07;;;;;;;32.83;10.80;;;-7.30;99.90;;;;;;2220307;64;20111;-42
2022/01/30 00:58:33;;;;;;;27.00;8.20;;;-7.30;99.90;;;;;;2220141;64;20100;-43
2022/01/30 01:00:59;;;;;;;24.70;7.90;;;-7.30;99.90;;;;;;2220914;64;20104;-43
2022/01/30 01:03:26;;;;;;;24.37;8.13;;;-7.30;99.90;;;;;;2220838;64;20092;-43
2022/01/30 01:05:55;;;;;;;23.50;8.53;;;-7.30;99.90;;;;;;2220997;64;20468;-42
2022/01/30 01:08:47;;;;;;;19.97;6.83;;;-7.40;99.90;;;;;;2219991;64;20089;-43
2022/01/30 01:24:47;;;;;;;31.67;11.02;;;-7.30;99.90;;;;;;2217062;64;20104;-43
2022/01/30 01:27:14;;;;;;;16.73;5.80;;;-7.30;99.90;;;;;;2216815;64;20156;-42
2022/01/30 01:29:40;;;;;;;27.50;9.00;;;-7.20;99.90;;;;;;2217085;64;20100;-42
2022/01/30 01:32:07;;;;;;;36.67;11.00;;;-7.30;99.90;;;;;;2216929;64;20093;-43
2022/01/30 01:34:36;;;;;;;32.17;10.60;;;-7.20;99.90;;;;;;2216564;64;20097;-42
2022/01/30 01:37:09;;;;;;;25.87;9.47;;;-7.20;99.90;;;;;;2216713;64;20092;-42
2022/01/30 01:39:36;;;;;;;31.67;10.37;;;-7.20;99.90;;;;;;2217001;64;20081;-43
2022/01/30 01:42:03;;;;;;;28.80;8.50;;;-7.20;99.90;;;;;;2216804;64;20093;-43
2022/01/30 01:44:41;;;;;;;25.73;9.53;;;-7.20;99.90;;;;;;2216893;64;20111;-43
2022/01/30 01:47:09;;;;;;;30.87;8.63;;;-7.20;99.90;;;;;;2216890;64;20097;-43
2022/01/30 01:49:35;;;;;;;30.57;9.93;;;-7.10;99.90;;;;;;2216882;64;20096;-43
2022/01/30 01:54:52;;;;;;;30.87;9.77;;;-7.10;99.90;;;;;;2216154;64;20101;-44
2022/01/30 01:57:19;;;;;;;33.47;11.18;;;-7.10;99.90;;;;;;2220330;64;20595;-43
2022/01/30 01:59:46;;;;;;;25.10;8.37;;;-7.10;99.90;;;;;;2207275;64;20104;-42
2022/01/30 02:02:12;;;;;;;17.27;7.63;;;-7.10;99.90;;;;;;2207297;64;20125;-44
2022/01/30 02:04:41;;;;;;;24.67;7.43;;;-7.00;99.90;;;;;;2207602;64;20078;-43
2022/01/30 02:09:40;;;;;;;25.43;7.13;;;-6.90;99.90;;;;;;2209713;64;20245;-43
2022/01/30 02:12:14;;;;;;;27.57;8.10;;;-6.90;99.90;;;;;;2207977;64;20108;-43
2022/01/30 02:14:54;;;;;;;26.77;10.15;;;-6.90;99.90;;;;;;2211304;64;20123;-42
2022/01/30 02:25:42;;;;;;;6.35;2.42;;;-6.80;99.90;;;;;;2208393;64;20112;-44
2022/01/30 02:28:12;;;;;;;12.47;4.40;;;-6.80;99.90;;;;;;2211326;64;20097;-43
2022/01/30 02:30:43;;;;;;;10.93;2.97;;;-6.90;99.90;;;;;;2211175;64;20098;-43
2022/01/30 02:33:10;;;;;;;22.83;7.13;;;-6.80;99.90;;;;;;2211432;64;20128;-43
2022/01/30 02:35:36;;;;;;;19.97;6.90;;;-6.80;99.90;;;;;;2211104;64;20089;-44
2022/01/30 02:38:03;;;;;;;7.10;1.70;;;-6.80;99.90;;;;;;2221684;64;20173;-44
2022/01/30 02:40:37;;;;;;;10.40;3.00;;;-6.80;99.90;;;;;;2224468;64;20104;-42
2022/01/30 02:43:05;;;;;;;5.03;2.67;;;-6.80;99.90;;;;;;2224684;64;20088;-43
2022/01/30 02:45:34;;;;;;;13.90;4.77;;;-6.80;99.90;;;;;;2224430;64;20165;-43
2022/01/30 02:50:37;;;;;;;25.97;9.03;;;-6.60;99.90;;;;;;2225091;64;20102;-44
2022/01/30 02:53:07;;;;;;;18.20;6.97;;;-6.60;99.90;;;;;;2225005;64;20484;-43
2022/01/30 02:55:33;;;;;;;19.80;6.47;;;-6.60;99.90;;;;;;2218025;64;20084;-43
2022/01/30 02:58:00;;;;;;;29.23;7.77;;;-6.50;99.90;;;;;;2221155;64;20080;-43
2022/01/30 03:00:26;;;;;;;28.50;8.27;;;-6.50;99.90;;;;;;2225123;64;20173;-43
2022/01/30 03:02:53;;;;;;;23.20;7.47;;;-6.50;99.90;;;;;;2225193;64;20083;-43
2022/01/30 03:05:19;;;;;;;25.03;9.47;;;-6.50;99.90;;;;;;2224912;64;20103;-43
2022/01/30 03:07:46;;;;;;;26.77;8.17;;;-6.50;99.90;;;;;;2225266;64;20087;-43
2022/01/30 03:10:12;;;;;;;17.27;7.30;;;-6.50;99.90;;;;;;2222051;64;20174;-44
2022/01/30 03:12:38;;;;;;;23.77;8.63;;;-6.40;99.90;;;;;;2217193;64;20548;-44
2022/01/30 03:15:05;;;;;;;22.93;7.83;;;-6.30;99.90;;;;;;2220968;64;20553;-44
2022/01/30 03:17:32;;;;;;;19.20;7.17;;;-6.30;99.90;;;;;;2221241;64;20100;-44
2022/01/30 03:19:58;;;;;;;28.80;9.40;;;-6.30;99.90;;;;;;2221170;64;20476;-42
2022/01/30 03:22:26;;;;;;;28.43;6.10;;;-6.30;99.90;;;;;;2221176;64;20530;-42
2022/01/30 03:24:52;;;;;;;26.40;11.30;;;-6.30;99.90;;;;;;2217257;64;20096;-43
2022/01/30 03:27:19;;;;;;;25.97;10.20;;;-6.30;99.90;;;;;;2221162;64;20107;-42
2022/01/30 03:29:51;;;;;;;29.33;9.33;;;-6.30;99.90;;;;;;2221102;64;20101;-43
2022/01/30 03:32:17;;;;;;;28.13;8.27;;;-6.30;99.90;;;;;;2221118;64;20096;-43
2022/01/30 03:34:44;;;;;;;33.03;12.53;;;-6.30;99.90;;;;;;2221122;64;20085;-43
2022/01/30 03:37:11;;;;;;;35.27;14.13;;;-6.30;99.90;;;;;;2220894;64;20158;-42
2022/01/30 03:39:37;;;;;;;30.93;9.03;;;-6.20;99.90;;;;;;2221077;64;20084;-44
2022/01/30 03:42:04;;;;;;;32.90;9.07;;;-6.20;99.90;;;;;;2221133;64;20108;-43
2022/01/30 03:44:31;;;;;;;17.03;6.47;;;-6.10;99.90;;;;;;2217114;64;20096;-43
2022/01/30 03:46:57;;;;;;;29.03;9.70;;;-6.10;99.90;;;;;;2220946;64;20567;-44
2022/01/30 03:49:24;;;;;;;22.73;8.70;;;-6.10;99.90;;;;;;2220850;64;20472;-43
2022/01/30 03:51:50;;;;;;;25.53;8.80;;;-6.10;99.90;;;;;;2221093;64;20096;-43
2022/01/30 03:54:16;;;;;;;33.97;12.40;;;-6.00;99.90;;;;;;2220972;64;20107;-42
2022/01/30 03:56:43;;;;;;;30.67;9.73;;;-6.10;99.90;;;;;;2220759;64;20534;-44
2022/01/30 03:59:09;;;;;;;29.17;8.50;;;-6.00;99.90;;;;;;2220872;64;20096;-43
2022/01/30 04:01:37;;;;;;;28.67;9.43;;;-6.00;99.90;;;;;;2221039;64;20433;-43
2022/01/30 04:04:04;;;;;;;19.97;6.73;;;-6.00;99.90;;;;;;2220972;64;20633;-44
2022/01/30 04:06:30;;;;;;;29.33;9.77;;;-6.00;99.90;;;;;;2221029;64;20093;-43
2022/01/30 04:08:57;;;;;;;30.57;11.53;;;-6.00;99.90;;;;;;2221902;64;20475;-43
2022/01/30 04:11:24;;;;;;;27.10;9.13;;;-5.90;99.90;;;;;;2224935;64;20440;-43
2022/01/30 04:13:50;;;;;;;25.33;8.23;;;-5.90;99.90;;;;;;2224753;64;20111;-46
2022/01/30 04:16:17;;;;;;;24.57;9.00;;;-5.90;99.90;;;;;;2224890;64;20084;-44
2022/01/30 04:18:44;;;;;;;19.83;7.17;;;-5.90;99.90;;;;;;2224803;64;20088;-44
2022/01/30 04:21:10;;;;;;;31.47;9.80;;;-5.90;99.90;;;;;;2224958;64;20188;-43
2022/01/30 04:23:39;;;;;;;29.40;9.73;;;-5.90;99.90;;;;;;2224705;64;20115;-44
2022/01/30 04:26:06;;;;;;;29.63;11.30;;;-5.80;99.90;;;;;;2224720;64;20135;-43
2022/01/30 04:28:32;;;;;;;34.00;10.97;;;-5.80;99.90;;;;;;2224650;64;20092;-44
2022/01/30 04:30:59;;;;;;;37.57;14.13;;;-5.80;99.90;;;;;;2224725;64;20088;-45
2022/01/30 04:33:26;;;;;;;36.93;15.37;;;-5.80;99.90;;;;;;2224732;64;20480;-43
2022/01/30 04:35:53;;;;;;;33.13;10.40;;;-5.80;99.90;;;;;;2224831;64;20084;-45
2022/01/30 04:38:25;;;;;;;27.80;9.57;;;-5.80;99.90;;;;;;2224738;64;20107;-44
2022/01/30 04:41:27;;;;;;;37.10;10.47;;;-5.70;99.90;;;;;;2224945;64;20080;-45
2022/01/30 04:52:37;;;;;;;38.70;15.35;;;-5.70;99.90;;;;;;2224153;64;20110;-44
2022/01/30 04:55:51;;;;;;;31.23;10.60;;;-5.70;99.90;;;;;;2224494;64;20088;-45
2022/01/30 04:58:27;;;;;;;32.40;13.40;;;-5.60;99.90;;;;;;2224555;64;20092;-43
2022/01/30 05:00:58;;;;;;;27.30;9.63;;;-5.60;99.90;;;;;;2223824;64;20092;-44
2022/01/30 05:06:01;;;;;;;26.57;10.33;;;-5.50;99.90;;;;;;2224782;64;20084;-44
2022/01/30 05:08:31;;;;;;;33.03;11.80;;;-5.50;99.90;;;;;;2224183;64;20329;-44
2022/01/30 05:10:57;;;;;;;21.97;9.33;;;-5.50;99.90;;;;;;2220779;64;20476;-44
2022/01/30 05:13:28;;;;;;;28.03;7.90;;;-5.50;99.90;;;;;;2220666;64;20115;-47
2022/01/30 05:15:55;;;;;;;39.63;14.17;;;-5.40;99.90;;;;;;2220848;64;20088;-46
2022/01/30 05:18:22;;;;;;;33.77;12.23;;;-5.40;99.90;;;;;;2220609;64;20160;-45
2022/01/30 05:20:49;;;;;;;29.77;9.30;;;-5.40;99.90;;;;;;2216947;64;20088;-45
2022/01/30 05:23:19;;;;;;;33.07;11.07;;;-5.40;99.90;;;;;;2220740;64;20119;-46
2022/01/30 05:25:47;;;;;;;28.87;10.77;;;-5.30;99.90;;;;;;2213888;64;20112;-45
2022/01/30 05:28:15;;;;;;;25.97;10.17;;;-5.30;99.90;;;;;;2220538;64;20089;-45
2022/01/30 05:30:42;;;;;;;33.60;10.87;;;-5.30;99.90;;;;;;2220818;64;20096;-45
2022/01/30 05:33:08;;;;;;;26.40;9.03;;;-5.20;99.90;;;;;;2220528;64;20568;-44
2022/01/30 05:35:35;;;;;;;26.53;9.13;;;-5.20;99.90;;;;;;2216738;64;20108;-46
2022/01/30 05:38:03;;;;;;;33.40;10.90;;;-5.20;99.90;;;;;;2220620;64;20103;-44
2022/01/30 05:40:29;;;;;;;27.10;9.87;;;-5.20;99.90;;;;;;2220956;64;20555;-45
2022/01/30 05:42:56;;;;;;;25.97;8.23;;;-5.20;99.90;;;;;;2220634;64;20535;-47
2022/01/30 05:47:56;;;;;;;29.50;7.73;;;-5.10;99.90;;;;;;2220658;64;20085;-45
2022/01/30 05:50:23;;;;;;;29.27;9.07;;;-5.00;99.90;;;;;;2217241;64;20084;-45
2022/01/30 05:52:50;;;;;;;23.57;8.07;;;-5.00;99.90;;;;;;2220610;64;20245;-46
2022/01/30 05:55:16;;;;;;;32.50;11.40;;;-5.00;99.90;;;;;;2220605;64;20100;-44
2022/01/30 05:57:42;;;;;;;28.80;9.17;;;-4.90;99.90;;;;;;2220518;64;20076;-46
2022/01/30 06:00:13;;;;;;;23.20;6.83;;;-4.90;99.90;;;;;;2220689;64;20092;-46
2022/01/30 06:02:41;;;;;;;25.80;9.23;;;-4.90;99.90;;;;;;2220574;64;20097;-44
2022/01/30 06:05:08;;;;;;;32.50;12.73;;;-4.80;99.90;;;;;;2220622;64;20088;-45
2022/01/30 06:07:38;;;;;;;34.53;9.67;;;-4.70;99.90;;;;;;2220594;64;20556;-44
2022/01/30 06:10:05;;;;;;;21.70;9.80;;;-4.70;99.90;;;;;;2223340;64;20076;-46
2022/01/30 06:12:31;;;;;;;27.63;12.30;;;-4.60;99.90;;;;;;2224452;64;20479;-45
2022/01/30 06:14:57;;;;;;;28.90;10.87;;;-4.50;99.90;;;;;;2224440;64;20110;-48
2022/01/30 06:17:24;;;;;;;30.10;10.37;;;-4.50;99.90;;;;;;2224611;64;20088;-46
2022/01/30 06:19:50;;;;;;;30.27;8.03;;;-4.40;99.90;;;;;;2224657;64;20084;-47
2022/01/30 06:22:17;;;;;;;35.13;10.50;;;-4.30;99.90;;;;;;2225805;64;20088;-49
2022/01/30 06:24:43;;;;;;;29.27;10.70;;;-4.30;99.90;;;;;;2225927;64;20092;-46
2022/01/30 06:27:09;;;;;;;32.47;9.47;;;-4.20;99.90;;;;;;2225762;64;20092;-48
2022/01/30 06:29:36;;;;;;;28.43;9.30;;;-4.10;99.90;;;;;;2225814;64;20081;-47
2022/01/30 06:32:03;;;;;;;22.37;8.57;;;-4.10;99.90;;;;;;2225789;64;20104;-47
2022/01/30 06:34:29;;;;;;;30.87;9.80;;;-4.00;99.90;;;;;;2225800;64;20088;-46
2022/01/30 06:36:56;;;;;;;32.50;10.03;;;-3.90;99.90;;;;;;2225950;64;20110;-48
2022/01/30 06:39:22;;;;;;;26.87;8.47;;;-3.80;99.90;;;;;;2225708;64;20184;-47
2022/01/30 06:41:49;;;;;;;26.17;8.80;;;-3.80;99.90;;;;;;2225649;64;20151;-46
2022/01/30 06:44:15;;;;;;;24.33;8.30;;;-3.70;99.90;;;;;;2225670;64;20185;-46
2022/01/30 06:46:42;;;;;;;25.37;7.57;;;-3.60;99.90;;;;;;2225775;64;20604;-47
2022/01/30 06:49:08;;;;;;;25.07;8.63;;;-3.50;99.90;;;;;;2225708;64;20173;-48
2022/01/30 06:51:35;;;;;;;18.10;6.57;;;-3.50;99.90;;;;;;2225709;64;20084;-46
2022/01/30 06:54:01;;;;;;;17.17;6.03;;;-3.50;99.90;;;;;;2225585;64;20122;-47
2022/01/30 06:56:27;;;;;;;26.07;9.47;;;-3.50;99.90;;;;;;2225651;64;20088;-47
2022/01/30 06:58:56;;;;;;;22.60;7.50;;;-3.30;99.90;;;;;;2225590;64;20104;-47
2022/01/30 07:01:23;;;;;;;23.00;7.73;;;-3.20;99.90;;;;;;2225753;64;20169;-48
2022/01/30 07:03:50;;;;;;;23.07;9.23;;;-3.20;99.90;;;;;;2225454;64;20552;-46
2022/01/30 07:06:16;;;;;;;24.07;8.53;;;-3.00;99.90;;;;;;2225803;64;20088;-47
2022/01/30 07:08:42;;;;;;;19.23;7.40;;;-2.90;99.90;;;;;;2224807;64;20084;-46
2022/01/30 07:11:09;;;;;;;24.80;8.20;;;-2.80;99.90;;;;;;2221785;64;20156;-45
2022/01/30 07:13:35;;;;;;;17.30;6.93;;;-2.70;99.90;;;;;;2221493;64;20123;-46
2022/01/30 07:16:02;;;;;;;20.13;7.80;;;-2.60;99.90;;;;;;2221768;64;20092;-46
2022/01/30 07:18:28;;;;;;;23.03;8.53;;;-2.50;99.90;;;;;;2221561;64;20088;-45
2022/01/30 07:20:54;;;;;;;26.93;9.77;;;-2.40;99.90;;;;;;2221687;64;20107;-49
2022/01/30 07:23:21;;;;;;;19.27;8.13;;;-2.30;99.90;;;;;;2221568;64;20120;-47
2022/01/30 07:25:47;;;;;;;19.37;8.00;;;-2.20;99.90;;;;;;2221578;64;20104;-46
2022/01/30 07:28:14;;;;;;;20.00;7.57;;;-2.20;99.90;;;;;;2221787;64;20111;-49
2022/01/30 07:30:40;;;;;;;22.23;8.97;;;-2.20;99.90;;;;;;2221732;64;20237;-46
2022/01/30 07:33:06;;;;;;;17.03;7.13;;;-2.10;99.90;;;;;;2220938;64;20208;-47
2022/01/30 07:35:36;;;;;;;21.07;8.57;;;-2.00;99.90;;;;;;2221152;64;20556;-46
2022/01/30 07:38:03;;;;;;;18.37;6.97;;;-2.00;99.90;;;;;;2217261;64;20540;-46
2022/01/30 07:40:34;;;;;;;18.50;7.80;;;-1.90;99.90;;;;;;2221233;64;20100;-50
2022/01/30 07:43:00;;;;;;;37.10;16.07;;;-1.80;99.90;;;;;;2220886;64;20080;-49
2022/01/30 07:45:27;;;;;;;24.53;9.70;;;-1.80;99.90;;;;;;2221157;64;20084;-47
2022/01/30 07:47:53;;;;;;;21.43;8.73;;;-1.80;99.90;;;;;;2220899;64;20177;-49
2022/01/30 07:50:20;;;;;;;22.90;9.00;;;-1.70;99.90;;;;;;2220933;64;20088;-49
2022/01/30 07:52:46;;;;;;;16.73;6.47;;;-1.60;99.90;;;;;;2220973;64;20088;-46
2022/01/30 07:55:13;;;;;;;23.67;8.50;;;-1.60;99.90;;;;;;2220833;64;20633;-48
2022/01/30 07:57:41;;;;;;;20.20;7.07;;;-1.50;99.90;;;;;;2221090;64;20088;-47
2022/01/30 08:00:08;;;;;;;19.37;7.13;;;-1.40;99.90;;;;;;2220949;64;20095;-47
2022/01/30 08:02:34;;;;;;;22.27;7.77;;;-1.40;99.90;;;;;;2220995;64;20463;-46
2022/01/30 08:05:01;;;;;;;20.60;7.90;;;-1.30;99.90;;;;;;2220834;64;20101;-47
2022/01/30 08:07:28;;;;;;;15.33;7.17;;;-1.20;99.90;;;;;;2221006;64;20084;-49
2022/01/30 08:09:55;;;;;;;17.80;6.67;;;-1.10;99.90;;;;;;2223482;64;20113;-44
2022/01/30 08:12:22;;;;;;;23.23;7.57;;;-1.00;99.90;;;;;;2224836;64;20092;-45
2022/01/30 08:14:49;;;;;;;14.60;7.27;;;-0.90;99.90;;;;;;2224434;64;20444;-44
2022/01/30 08:17:21;;;;;;;13.63;4.37;;;-0.80;99.90;;;;;;2224842;64;20540;-43
2022/01/30 08:19:48;;;;;;;18.10;7.57;;;-0.80;99.90;;;;;;2224605;64;20445;-42
2022/01/30 08:22:14;;;;;;;17.40;7.87;;;-0.60;99.90;;;;;;2224595;64;20088;-41
2022/01/30 08:24:41;;;;;;;12.50;4.97;;;-0.60;99.90;;;;;;2224662;64;20103;-40
2022/01/30 08:27:07;;;;;;;17.10;6.93;;;-0.50;99.90;;;;;;2224775;64;20076;-43
2022/01/30 08:29:34;;;;;;;15.77;6.80;;;-0.50;99.90;;;;;;2224704;64;20076;-44
2022/01/30 08:32:00;;;;;;;14.07;5.83;;;-0.40;99.90;;;;;;2221115;64;20103;-50
2022/01/30 08:34:27;;;;;;;16.27;6.73;;;-0.40;99.90;;;;;;2224593;64;20103;-53
2022/01/30 08:36:53;;;;;;;21.60;6.80;;;-0.40;99.90;;;;;;2224791;64;20110;-59
2022/01/30 08:39:20;;;;;;;12.63;5.80;;;-0.20;99.90;;;;;;2224554;64;20076;-47
2022/01/30 08:41:46;;;;;;;15.73;7.33;;;-0.30;99.90;;;;;;2224805;64;20544;-35
2022/01/30 08:44:13;;;;;;;19.10;7.60;;;-0.20;99.90;;;;;;2224478;64;20096;-39
2022/01/30 08:46:39;;;;;;;15.50;6.83;;;-0.10;99.90;;;;;;2224691;64;20586;-35
2022/01/30 08:49:06;;;;;;;14.10;6.10;;;-0.20;99.90;;;;;;2224661;64;20088;-45
2022/01/30 08:51:32;;;;;;;16.10;6.87;;;-0.10;99.90;;;;;;2224840;64;20103;-33
2022/01/30 08:53:58;;;;;;;14.87;6.43;;;0.00;99.90;;;;;;2224566;64;20088;-33
2022/01/30 08:56:25;;;;;;;15.10;5.30;;;-0.10;99.90;;;;;;2224618;64;20092;-41
2022/01/30 08:58:51;;;;;;;15.50;7.47;;;-0.30;99.90;;;;;;2224556;64;20565;-34
2022/01/30 09:01:18;;;;;;;14.17;6.47;;;-0.40;99.90;;;;;;2224760;64;20499;-34
2022/01/30 09:03:44;;;;;;;16.50;6.30;;;-0.20;99.90;;;;;;2224385;64;20429;-35
2022/01/30 09:06:11;;;;;;;15.43;6.03;;;-0.30;99.90;;;;;;2224696;64;20076;-37
2022/01/30 09:08:37;;;;;;;17.07;6.27;;;-0.30;99.90;;;;;;2223954;64;20487;-36
2022/01/30 09:11:04;;;;;;;13.50;6.60;;;-0.10;99.90;;;;;;2220803;64;20093;-35
2022/01/30 09:13:31;;;;;;;15.00;6.77;;;-0.30;99.90;;;;;;2220630;64;20181;-36
2022/01/30 09:15:59;;;;;;;19.83;7.57;;;-0.70;99.90;;;;;;2220763;64;20093;-35
2022/01/30 09:18:26;;;;;;;24.70;9.10;;;-0.80;99.90;;;;;;2220780;64;20120;-36
2022/01/30 09:20:53;;;;;;;23.23;9.10;;;-1.40;99.90;;;;;;2220779;64;20173;-38
2022/01/30 09:23:20;;;;;;;23.63;9.27;;;-1.70;99.90;;;;;;2220634;64;20111;-36
2022/01/30 09:25:47;;;;;;;24.77;10.40;;;-1.80;99.90;;;;;;2216836;64;20505;-36
2022/01/30 09:28:13;;;;;;;27.73;11.53;;;-1.90;99.90;;;;;;2220594;64;20561;-37
2022/01/30 09:30:40;;;;;;;33.13;12.03;;;-1.80;99.90;;;;;;2220791;64;20088;-38
2022/01/30 09:33:06;;;;;;;31.67;12.00;;;-1.90;99.90;;;;;;2220709;64;20111;-39
2022/01/30 09:35:33;;;;;;;25.77;9.50;;;-2.30;99.90;;;;;;2220686;64;20203;-37
2022/01/30 09:37:59;;;;;;;27.67;11.57;;;-2.50;99.90;;;;;;2216683;64;20165;-38
2022/01/30 09:40:26;;;;;;;25.93;10.83;;;-2.60;99.90;;;;;;2220704;64;20139;-40
2022/01/30 09:42:52;;;;;;;33.97;12.07;;;-2.50;99.90;;;;;;2220457;64;20170;-37
2022/01/30 09:45:20;;;;;;;28.30;11.67;;;-2.60;99.90;;;;;;2216780;64;20123;-39
2022/01/30 09:47:47;;;;;;;17.80;5.70;;;-2.60;99.90;;;;;;2220567;64;20178;-39
2022/01/30 09:50:16;;;;;;;31.53;10.47;;;-2.70;99.90;;;;;;2220737;64;20100;-39
2022/01/30 09:52:42;;;;;;;32.20;12.67;;;-2.80;99.90;;;;;;2216791;64;20085;-46
2022/01/30 09:55:09;;;;;;;10.83;3.67;;;-2.70;99.90;;;;;;2216452;64;20104;-47
2022/01/30 09:57:36;;;;;;;13.13;4.40;;;-2.70;99.90;;;;;;2215923;64;20135;-40
2022/01/30 10:00:04;;;;;;;23.57;7.23;;;-2.80;99.90;;;;;;2216734;64;20084;-38
2022/01/30 10:02:31;;;;;;;4.83;2.23;;;-2.70;99.90;;;;;;2216711;64;20089;-37
2022/01/30 10:04:58;;;;;;;29.50;11.37;;;-2.60;99.90;;;;;;2216841;64;20081;-38
2022/01/30 10:07:37;;;;;;;32.57;10.93;;;-2.60;99.90;;;;;;2216053;64;20085;-38
2022/01/30 10:10:07;;;;;;;16.40;6.87;;;-2.50;99.90;;;;;;2216044;64;20100;-35
2022/01/30 10:12:34;;;;;;;29.10;11.73;;;-2.50;99.90;;;;;;2216736;64;20170;-38
2022/01/30 10:15:10;;;;;;;31.67;10.20;;;-2.40;99.90;;;;;;2216643;64;20178;-35
2022/01/30 10:17:46;;;;;;;15.03;6.10;;;-2.40;99.90;;;;;;2216809;64;20127;-36
2022/01/30 10:20:14;;;;;;;23.63;9.00;;;-2.40;99.90;;;;;;2216639;64;20173;-35
2022/01/30 10:22:57;;;;;;;26.47;9.80;;;-2.50;99.90;;;;;;2216750;64;20096;-39
2022/01/30 10:25:29;;;;;;;21.33;8.63;;;-2.60;99.90;;;;;;2216524;64;20108;-34
2022/01/30 10:28:15;;;;;;;16.13;6.17;;;-2.60;99.90;;;;;;2216500;64;20569;-34
2022/01/30 10:31:01;;;;;;;8.00;3.00;;;-2.70;99.90;;;;;;2216586;64;20104;-42
2022/01/30 10:33:45;;;;;;;4.23;2.33;;;-2.80;99.90;;;;;;2216446;64;20206;-41
2022/01/30 10:36:23;;;;;;;30.53;11.80;;;-2.70;99.90;;;;;;2216643;64;20139;-47
2022/01/30 10:39:16;;;;;;;19.23;5.97;;;-2.90;99.90;;;;;;2216651;64;20089;-43
2022/01/30 10:41:48;;;;;;;13.07;6.03;;;-3.00;99.90;;;;;;2216573;64;20116;-51
2022/01/30 10:44:15;;;;;;;26.63;8.67;;;-3.00;99.90;;;;;;2216491;64;20097;-64
2022/01/30 10:46:43;;;;;;;6.70;2.87;;;-3.10;99.90;;;;;;2216744;64;20100;-46
2022/01/30 10:49:14;;;;;;;14.43;5.80;;;-3.20;99.90;;;;;;2216598;64;20499;-42
2022/01/30 10:51:51;;;;;;;10.77;3.00;;;-3.20;99.90;;;;;;2215965;64;20088;-41
2022/01/30 10:54:18;;;;;;;12.63;4.70;;;-3.30;99.90;;;;;;2216378;64;20093;-40
2022/01/30 10:56:44;;;;;;;13.27;3.73;;;-3.40;99.90;;;;;;2218319;64;20147;-39
2022/01/30 10:59:20;;;;;;;27.67;9.30;;;-3.50;99.90;;;;;;2219879;64;20089;-41
2022/01/30 11:01:48;;;;;;;17.20;5.77;;;-3.60;99.90;;;;;;2220415;64;20080;-41
2022/01/30 11:04:22;;;;;;;32.80;13.03;;;-3.60;99.90;;;;;;2220442;64;20100;-41
2022/01/30 11:06:49;;;;;;;5.07;2.40;;;-3.50;99.90;;;;;;2220651;64;20093;-40
2022/01/30 11:09:25;;;;;;;27.77;9.70;;;-3.50;99.90;;;;;;2219320;64;20078;-42
2022/01/30 11:12:06;;;;;;;29.30;9.83;;;-3.60;99.90;;;;;;2216521;64;20523;-40
2022/01/30 11:17:16;;;;;;;24.67;7.17;;;-3.50;99.90;;;;;;2216634;64;20152;-43
2022/01/30 11:19:43;;;;;;;17.23;7.20;;;-3.60;99.90;;;;;;2216607;64;20119;-40
2022/01/30 11:22:18;;;;;;;20.07;6.83;;;-3.80;99.90;;;;;;2217299;64;20085;-41
2022/01/30 11:24:47;;;;;;;27.25;8.52;;;-3.80;99.90;;;;;;2216407;64;20132;-44
2022/01/30 11:27:21;;;;;;;21.83;8.50;;;-3.80;99.90;;;;;;2217200;64;20097;-42
2022/01/30 11:29:49;;;;;;;16.77;6.28;;;-3.90;99.90;;;;;;2216367;64;20560;-41
2022/01/30 11:32:16;;;;;;;16.60;4.53;;;-4.00;99.90;;;;;;2217167;64;20081;-44
2022/01/30 11:34:44;;;;;;;28.63;10.33;;;-4.10;99.90;;;;;;2217124;64;20172;-47
2022/01/30 11:37:12;;;;;;;16.53;6.90;;;-4.10;99.90;;;;;;2217152;64;20153;-44
2022/01/30 11:39:46;;;;;;;20.03;6.10;;;-4.20;99.90;;;;;;2216156;64;20093;-44
2022/01/30 11:42:14;;;;;;;13.83;5.50;;;-4.20;99.90;;;;;;2217192;64;20105;-43
2022/01/30 11:44:45;;;;;;;13.20;5.40;;;-4.20;99.90;;;;;;2216988;64;20093;-42
2022/01/30 11:47:12;;;;;;;5.17;1.47;;;-4.30;99.90;;;;;;2217203;64;20089;-44
2022/01/30 11:49:43;;;;;;;9.57;3.17;;;-4.30;99.90;;;;;;2216939;64;20085;-43
2022/01/30 11:52:10;;;;;;;20.43;7.93;;;-4.30;99.90;;;;;;2213295;64;20127;-44
2022/01/30 11:54:50;;;;;;;11.67;4.47;;;-4.20;99.90;;;;;;2216808;64;20238;-46
2022/01/30 11:57:22;;;;;;;9.87;4.33;;;-4.10;99.90;;;;;;2220131;64;20108;-45
2022/01/30 12:00:00;;;;;;;27.43;10.03;;;-4.10;99.90;;;;;;2220870;64;20093;-43
2022/01/30 12:02:28;;;;;;;27.07;8.90;;;-4.00;99.90;;;;;;2220869;64;20100;-43
2022/01/30 12:04:57;;;;;;;23.03;6.87;;;-4.10;99.90;;;;;;2220797;64;20095;-42
2022/01/30 12:07:39;;;;;;;17.00;7.33;;;-4.10;99.90;;;;;;2220980;64;20081;-44
2022/01/30 12:10:25;;;;;;;27.90;9.80;;;-4.10;99.90;;;;;;2223740;64;20182;-44
2022/01/30 12:13:06;;;;;;;27.63;9.60;;;-4.00;99.90;;;;;;2221222;64;20196;-45
2022/01/30 12:15:40;;;;;;;33.93;11.20;;;-4.10;99.90;;;;;;2224719;64;20601;-43
2022/01/30 12:18:35;;;;;;;9.93;3.50;;;-4.10;99.90;;;;;;2211029;64;20608;-43
2022/01/30 12:21:08;;;;;;;5.60;3.55;;;-4.00;99.90;;;;;;2210380;64;20140;-44
2022/01/30 12:23:42;;;;;;;27.00;7.27;;;-4.10;99.90;;;;;;2211429;64;20085;-43
2022/01/30 12:26:14;;;;;;;28.00;9.67;;;-4.10;99.90;;;;;;2211262;64;20070;-45
2022/01/30 12:28:51;;;;;;;2.07;1.10;;;-4.10;99.90;;;;;;2206719;64;20170;-44
2022/01/30 12:31:29;;;;;;;5.47;1.17;;;-4.10;99.90;;;;;;2203592;65;20113;-43
2022/01/30 12:34:11;;;;;;;37.27;14.10;;;-4.10;99.90;;;;;;2203782;65;20109;-45
2022/01/30 12:36:39;;;;;;;29.87;11.30;;;-4.10;99.90;;;;;;2200474;65;20086;-44
2022/01/30 12:39:14;;;;;;;27.40;9.03;;;-4.10;99.90;;;;;;2203634;65;20119;-45
2022/01/30 12:41:41;;;;;;;37.63;12.47;;;-4.10;99.90;;;;;;2203758;65;20169;-46
2022/01/30 12:44:10;;;;;;;27.50;8.03;;;-4.20;99.90;;;;;;2203819;65;20090;-45
2022/01/30 12:46:39;;;;;;;21.87;8.40;;;-4.20;99.90;;;;;;2203697;65;20115;-44
2022/01/30 12:49:11;;;;;;;23.47;8.87;;;-4.20;99.90;;;;;;2208936;64;20480;-44
2022/01/30 12:51:39;;;;;;;32.60;10.93;;;-4.20;99.90;;;;;;2215244;64;20081;-43
2022/01/30 12:54:07;;;;;;;21.30;6.97;;;-4.30;99.90;;;;;;2215069;64;20168;-44
2022/01/30 12:56:33;;;;;;;22.43;8.50;;;-4.30;99.90;;;;;;2214932;64;20101;-45
2022/01/30 12:59:06;;;;;;;1.40;1.20;;;-4.30;99.90;;;;;;2215205;64;20160;-45
2022/01/30 13:01:41;;;;;;;40.50;13.00;;;-4.40;99.90;;;;;;2214934;64;20496;-44
2022/01/30 13:04:18;;;;;;;17.33;6.35;;;-4.40;99.90;;;;;;2215235;64;20097;-45
2022/01/30 13:06:49;;;;;;;34.73;11.50;;;-4.40;99.90;;;;;;2218764;64;20096;-44
2022/01/30 13:09:26;;;;;;;33.00;9.80;;;-4.40;99.90;;;;;;2219285;64;20166;-44
2022/01/30 13:11:57;;;;;;;26.10;8.60;;;-4.40;99.90;;;;;;2216727;64;20088;-45
2022/01/30 13:14:33;;;;;;;33.07;11.53;;;-4.40;99.90;;;;;;2216697;64;20111;-44
2022/01/30 13:17:00;;;;;;;37.03;11.50;;;-4.40;99.90;;;;;;2216165;64;20497;-44
2022/01/30 13:19:38;;;;;;;16.30;4.03;;;-4.40;99.90;;;;;;2217030;64;20096;-44
2022/01/30 13:22:06;;;;;;;13.23;4.87;;;-4.40;99.90;;;;;;2216673;64;20089;-44
2022/01/30 13:24:32;;;;;;;33.80;11.60;;;-4.50;99.90;;;;;;2216829;64;20194;-44
2022/01/30 13:27:04;;;;;;;32.40;11.23;;;-4.50;99.90;;;;;;2215909;64;20564;-45
2022/01/30 13:29:33;;;;;;;34.40;11.27;;;-4.60;99.90;;;;;;2216790;64;20274;-46
2022/01/30 13:32:01;;;;;;;19.93;6.40;;;-4.60;99.90;;;;;;2216093;64;20092;-45
2022/01/30 13:34:29;;;;;;;30.30;10.83;;;-4.60;99.90;;;;;;2216583;64;20116;-46